sensor_id;sensor_type;location;lat;lon;timestamp;P1;durP1;ratioP1;P2;durP2;ratioP2
8938;SDS011;4504;48.810;9.172;2023-07-09T00:00:41;110.30;;;2.77;;
8938;SDS011;4504;48.810;9.172;2023-07-09T00:03:09;110.10;;;2.70;;
8938;SDS011;4504;48.810;9.172;2023-07-09T00:05:39;110.77;;;2.90;;
8938;SDS011;4504;48.810;9.172;2023-07-09T00:08:07;110.80;;;2.90;;
8938;SDS011;4504;48.810;9.172;2023-07-09T00:10:47;109.17;;;3.10;;
8938;SDS011;4504;48.810;9.172;2023-07-09T00:13:14;111.40;;;3.60;;
8938;SDS011;4504;48.810;9.172;2023-07-09T00:15:41;112.50;;;3.77;;
8938;SDS011;4504;48.810;9.172;2023-07-09T00:18:08;110.07;;;3.27;;
8938;SDS011;4504;48.810;9.172;2023-07-09T00:20:36;109.33;;;3.30;;
8938;SDS011;4504;48.810;9.172;2023-07-09T00:23:04;111.07;;;2.97;;
8938;SDS011;4504;48.810;9.172;2023-07-09T00:25:31;111.40;;;3.40;;
8938;SDS011;4504;48.810;9.172;2023-07-09T00:28:01;110.10;;;3.37;;
8938;SDS011;4504;48.810;9.172;2023-07-09T00:30:28;111.27;;;3.23;;
8938;SDS011;4504;48.810;9.172;2023-07-09T00:32:55;111.67;;;3.20;;
8938;SDS011;4504;48.810;9.172;2023-07-09T00:35:22;111.50;;;3.63;;
8938;SDS011;4504;48.810;9.172;2023-07-09T00:37:51;111.13;;;3.10;;
8938;SDS011;4504;48.810;9.172;2023-07-09T00:40:20;110.87;;;3.53;;
8938;SDS011;4504;48.810;9.172;2023-07-09T00:42:52;124.23;;;3.50;;
8938;SDS011;4504;48.810;9.172;2023-07-09T00:45:20;112.00;;;3.63;;
8938;SDS011;4504;48.810;9.172;2023-07-09T00:47:51;110.57;;;3.57;;
8938;SDS011;4504;48.810;9.172;2023-07-09T00:50:21;111.77;;;3.67;;
8938;SDS011;4504;48.810;9.172;2023-07-09T00:52:59;112.40;;;3.60;;
8938;SDS011;4504;48.810;9.172;2023-07-09T00:55:34;112.47;;;3.03;;
8938;SDS011;4504;48.810;9.172;2023-07-09T00:58:07;111.70;;;3.50;;
8938;SDS011;4504;48.810;9.172;2023-07-09T01:00:39;110.97;;;3.50;;
8938;SDS011;4504;48.810;9.172;2023-07-09T01:03:13;113.20;;;3.77;;
8938;SDS011;4504;48.810;9.172;2023-07-09T01:05:46;113.47;;;3.53;;
8938;SDS011;4504;48.810;9.172;2023-07-09T01:08:17;113.97;;;4.00;;
8938;SDS011;4504;48.810;9.172;2023-07-09T01:10:47;112.53;;;3.60;;
8938;SDS011;4504;48.810;9.172;2023-07-09T01:13:15;112.47;;;4.10;;
8938;SDS011;4504;48.810;9.172;2023-07-09T01:15:50;112.33;;;3.20;;
8938;SDS011;4504;48.810;9.172;2023-07-09T01:18:17;112.30;;;3.77;;
8938;SDS011;4504;48.810;9.172;2023-07-09T01:20:44;111.87;;;3.70;;
8938;SDS011;4504;48.810;9.172;2023-07-09T01:23:13;111.37;;;3.13;;
8938;SDS011;4504;48.810;9.172;2023-07-09T01:25:43;112.73;;;4.07;;
8938;SDS011;4504;48.810;9.172;2023-07-09T01:28:18;116.27;;;4.50;;
8938;SDS011;4504;48.810;9.172;2023-07-09T01:30:46;114.33;;;3.80;;
8938;SDS011;4504;48.810;9.172;2023-07-09T01:33:19;110.80;;;3.70;;
8938;SDS011;4504;48.810;9.172;2023-07-09T01:35:48;115.33;;;3.90;;
8938;SDS011;4504;48.810;9.172;2023-07-09T01:38:21;113.37;;;4.23;;
8938;SDS011;4504;48.810;9.172;2023-07-09T01:40:49;112.47;;;3.60;;
8938;SDS011;4504;48.810;9.172;2023-07-09T01:43:15;113.57;;;3.60;;
8938;SDS011;4504;48.810;9.172;2023-07-09T01:45:42;112.10;;;3.33;;
8938;SDS011;4504;48.810;9.172;2023-07-09T01:48:09;112.83;;;3.43;;
8938;SDS011;4504;48.810;9.172;2023-07-09T01:50:41;111.73;;;3.50;;
8938;SDS011;4504;48.810;9.172;2023-07-09T01:53:09;113.30;;;3.83;;
8938;SDS011;4504;48.810;9.172;2023-07-09T01:55:41;110.67;;;2.90;;
8938;SDS011;4504;48.810;9.172;2023-07-09T01:58:09;117.07;;;3.47;;
8938;SDS011;4504;48.810;9.172;2023-07-09T02:00:36;111.50;;;3.83;;
8938;SDS011;4504;48.810;9.172;2023-07-09T02:03:06;113.00;;;3.57;;
8938;SDS011;4504;48.810;9.172;2023-07-09T02:05:35;111.80;;;3.10;;
8938;SDS011;4504;48.810;9.172;2023-07-09T02:08:02;111.60;;;3.20;;
8938;SDS011;4504;48.810;9.172;2023-07-09T02:10:30;113.00;;;3.80;;
8938;SDS011;4504;48.810;9.172;2023-07-09T02:13:00;112.80;;;3.60;;
8938;SDS011;4504;48.810;9.172;2023-07-09T02:15:27;111.83;;;3.50;;
8938;SDS011;4504;48.810;9.172;2023-07-09T02:17:55;112.57;;;4.00;;
8938;SDS011;4504;48.810;9.172;2023-07-09T02:20:24;112.97;;;3.90;;
8938;SDS011;4504;48.810;9.172;2023-07-09T02:22:52;111.67;;;3.67;;
8938;SDS011;4504;48.810;9.172;2023-07-09T02:25:19;111.80;;;3.67;;
8938;SDS011;4504;48.810;9.172;2023-07-09T02:27:46;111.57;;;3.63;;
8938;SDS011;4504;48.810;9.172;2023-07-09T02:30:14;112.10;;;3.50;;
8938;SDS011;4504;48.810;9.172;2023-07-09T02:32:41;112.70;;;3.50;;
8938;SDS011;4504;48.810;9.172;2023-07-09T02:35:08;111.23;;;3.30;;
8938;SDS011;4504;48.810;9.172;2023-07-09T02:37:36;113.20;;;3.40;;
8938;SDS011;4504;48.810;9.172;2023-07-09T02:40:03;115.03;;;3.77;;
8938;SDS011;4504;48.810;9.172;2023-07-09T02:42:32;113.20;;;3.37;;
8938;SDS011;4504;48.810;9.172;2023-07-09T02:44:59;113.57;;;3.20;;
8938;SDS011;4504;48.810;9.172;2023-07-09T02:47:29;112.67;;;3.37;;
8938;SDS011;4504;48.810;9.172;2023-07-09T02:49:58;111.10;;;3.00;;
8938;SDS011;4504;48.810;9.172;2023-07-09T02:52:25;113.60;;;3.30;;
8938;SDS011;4504;48.810;9.172;2023-07-09T02:54:53;111.40;;;2.93;;
8938;SDS011;4504;48.810;9.172;2023-07-09T02:57:20;113.17;;;3.50;;
8938;SDS011;4504;48.810;9.172;2023-07-09T02:59:46;115.63;;;3.83;;
8938;SDS011;4504;48.810;9.172;2023-07-09T03:02:13;111.30;;;3.20;;
8938;SDS011;4504;48.810;9.172;2023-07-09T03:04:42;112.23;;;3.10;;
8938;SDS011;4504;48.810;9.172;2023-07-09T03:07:09;110.37;;;2.93;;
8938;SDS011;4504;48.810;9.172;2023-07-09T03:09:36;112.10;;;3.50;;
8938;SDS011;4504;48.810;9.172;2023-07-09T03:12:03;114.77;;;3.90;;
8938;SDS011;4504;48.810;9.172;2023-07-09T03:14:31;112.57;;;3.40;;
8938;SDS011;4504;48.810;9.172;2023-07-09T03:16:59;115.63;;;3.33;;
8938;SDS011;4504;48.810;9.172;2023-07-09T03:19:26;113.90;;;3.30;;
8938;SDS011;4504;48.810;9.172;2023-07-09T03:21:54;112.27;;;3.10;;
8938;SDS011;4504;48.810;9.172;2023-07-09T03:24:21;114.47;;;3.50;;
8938;SDS011;4504;48.810;9.172;2023-07-09T03:26:48;112.73;;;3.57;;
8938;SDS011;4504;48.810;9.172;2023-07-09T03:29:15;112.47;;;3.50;;
8938;SDS011;4504;48.810;9.172;2023-07-09T03:31:42;109.67;;;3.00;;
8938;SDS011;4504;48.810;9.172;2023-07-09T03:34:09;111.97;;;3.30;;
8938;SDS011;4504;48.810;9.172;2023-07-09T03:36:36;112.37;;;3.93;;
8938;SDS011;4504;48.810;9.172;2023-07-09T03:39:05;113.17;;;3.33;;
8938;SDS011;4504;48.810;9.172;2023-07-09T03:41:32;113.90;;;3.30;;
8938;SDS011;4504;48.810;9.172;2023-07-09T03:43:59;112.40;;;3.20;;
8938;SDS011;4504;48.810;9.172;2023-07-09T03:46:26;115.43;;;3.60;;
8938;SDS011;4504;48.810;9.172;2023-07-09T03:48:53;112.20;;;3.13;;
8938;SDS011;4504;48.810;9.172;2023-07-09T03:51:21;112.13;;;3.27;;
8938;SDS011;4504;48.810;9.172;2023-07-09T03:53:48;112.37;;;3.50;;
8938;SDS011;4504;48.810;9.172;2023-07-09T03:56:16;112.50;;;3.37;;
8938;SDS011;4504;48.810;9.172;2023-07-09T03:58:43;113.03;;;3.80;;
8938;SDS011;4504;48.810;9.172;2023-07-09T04:01:10;113.67;;;4.20;;
8938;SDS011;4504;48.810;9.172;2023-07-09T04:03:37;113.40;;;3.60;;
8938;SDS011;4504;48.810;9.172;2023-07-09T04:06:04;112.70;;;3.60;;
8938;SDS011;4504;48.810;9.172;2023-07-09T04:08:31;112.80;;;3.67;;
8938;SDS011;4504;48.810;9.172;2023-07-09T04:10:58;112.80;;;3.30;;
8938;SDS011;4504;48.810;9.172;2023-07-09T04:13:28;111.97;;;3.53;;
8938;SDS011;4504;48.810;9.172;2023-07-09T04:15:55;113.13;;;3.63;;
8938;SDS011;4504;48.810;9.172;2023-07-09T04:18:23;112.67;;;3.50;;
8938;SDS011;4504;48.810;9.172;2023-07-09T04:20:50;112.53;;;2.80;;
8938;SDS011;4504;48.810;9.172;2023-07-09T04:23:18;114.43;;;3.20;;
8938;SDS011;4504;48.810;9.172;2023-07-09T04:25:45;113.13;;;3.33;;
8938;SDS011;4504;48.810;9.172;2023-07-09T04:28:12;112.07;;;3.30;;
8938;SDS011;4504;48.810;9.172;2023-07-09T04:30:46;111.90;;;3.40;;
8938;SDS011;4504;48.810;9.172;2023-07-09T04:33:14;113.23;;;3.60;;
8938;SDS011;4504;48.810;9.172;2023-07-09T04:35:43;112.67;;;3.47;;
8938;SDS011;4504;48.810;9.172;2023-07-09T04:38:10;111.60;;;3.07;;
8938;SDS011;4504;48.810;9.172;2023-07-09T04:40:37;111.80;;;4.27;;
8938;SDS011;4504;48.810;9.172;2023-07-09T04:43:04;112.30;;;3.27;;
8938;SDS011;4504;48.810;9.172;2023-07-09T04:45:31;110.67;;;3.43;;
8938;SDS011;4504;48.810;9.172;2023-07-09T04:48:00;112.20;;;3.70;;
8938;SDS011;4504;48.810;9.172;2023-07-09T04:50:27;115.10;;;3.17;;
8938;SDS011;4504;48.810;9.172;2023-07-09T04:52:54;113.10;;;3.10;;
8938;SDS011;4504;48.810;9.172;2023-07-09T04:55:21;112.40;;;3.90;;
8938;SDS011;4504;48.810;9.172;2023-07-09T04:57:48;111.00;;;3.50;;
8938;SDS011;4504;48.810;9.172;2023-07-09T05:00:15;111.60;;;3.30;;
8938;SDS011;4504;48.810;9.172;2023-07-09T05:02:42;112.03;;;3.37;;
8938;SDS011;4504;48.810;9.172;2023-07-09T05:05:10;110.30;;;3.73;;
8938;SDS011;4504;48.810;9.172;2023-07-09T05:07:38;115.50;;;4.00;;
8938;SDS011;4504;48.810;9.172;2023-07-09T05:10:05;112.47;;;3.73;;
8938;SDS011;4504;48.810;9.172;2023-07-09T05:12:32;112.70;;;4.00;;
8938;SDS011;4504;48.810;9.172;2023-07-09T05:14:59;112.40;;;3.33;;
8938;SDS011;4504;48.810;9.172;2023-07-09T05:17:27;114.40;;;3.53;;
8938;SDS011;4504;48.810;9.172;2023-07-09T05:19:53;110.50;;;3.03;;
8938;SDS011;4504;48.810;9.172;2023-07-09T05:22:22;112.17;;;3.33;;
8938;SDS011;4504;48.810;9.172;2023-07-09T05:24:49;111.30;;;3.73;;
8938;SDS011;4504;48.810;9.172;2023-07-09T05:27:16;110.80;;;3.73;;
8938;SDS011;4504;48.810;9.172;2023-07-09T05:29:43;111.97;;;3.53;;
8938;SDS011;4504;48.810;9.172;2023-07-09T05:32:10;111.47;;;3.30;;
8938;SDS011;4504;48.810;9.172;2023-07-09T05:34:37;110.47;;;3.37;;
8938;SDS011;4504;48.810;9.172;2023-07-09T05:37:04;116.10;;;3.90;;
8938;SDS011;4504;48.810;9.172;2023-07-09T05:39:32;110.97;;;3.23;;
8938;SDS011;4504;48.810;9.172;2023-07-09T05:41:59;110.20;;;3.57;;
8938;SDS011;4504;48.810;9.172;2023-07-09T05:44:26;112.07;;;3.73;;
8938;SDS011;4504;48.810;9.172;2023-07-09T05:46:53;109.67;;;3.20;;
8938;SDS011;4504;48.810;9.172;2023-07-09T05:49:20;110.47;;;3.20;;
8938;SDS011;4504;48.810;9.172;2023-07-09T05:51:47;109.10;;;3.10;;
8938;SDS011;4504;48.810;9.172;2023-07-09T05:54:14;110.90;;;3.60;;
8938;SDS011;4504;48.810;9.172;2023-07-09T05:56:42;110.43;;;3.37;;
8938;SDS011;4504;48.810;9.172;2023-07-09T05:59:09;111.47;;;3.40;;
8938;SDS011;4504;48.810;9.172;2023-07-09T06:01:36;107.57;;;2.90;;
8938;SDS011;4504;48.810;9.172;2023-07-09T06:04:03;109.87;;;3.17;;
8938;SDS011;4504;48.810;9.172;2023-07-09T06:06:31;111.87;;;3.67;;
8938;SDS011;4504;48.810;9.172;2023-07-09T06:08:58;108.97;;;3.10;;
8938;SDS011;4504;48.810;9.172;2023-07-09T06:11:25;111.50;;;3.30;;
8938;SDS011;4504;48.810;9.172;2023-07-09T06:13:54;110.70;;;3.43;;
8938;SDS011;4504;48.810;9.172;2023-07-09T06:16:20;108.07;;;3.13;;
8938;SDS011;4504;48.810;9.172;2023-07-09T06:18:47;111.00;;;3.20;;
8938;SDS011;4504;48.810;9.172;2023-07-09T06:21:14;111.07;;;3.57;;
8938;SDS011;4504;48.810;9.172;2023-07-09T06:23:41;108.53;;;3.07;;
8938;SDS011;4504;48.810;9.172;2023-07-09T06:26:08;110.30;;;3.67;;
8938;SDS011;4504;48.810;9.172;2023-07-09T06:28:35;110.20;;;3.27;;
8938;SDS011;4504;48.810;9.172;2023-07-09T06:31:03;113.27;;;3.10;;
8938;SDS011;4504;48.810;9.172;2023-07-09T06:33:30;109.67;;;3.00;;
8938;SDS011;4504;48.810;9.172;2023-07-09T06:35:58;108.37;;;2.90;;
8938;SDS011;4504;48.810;9.172;2023-07-09T06:38:26;108.27;;;3.10;;
8938;SDS011;4504;48.810;9.172;2023-07-09T06:40:54;111.90;;;3.27;;
8938;SDS011;4504;48.810;9.172;2023-07-09T06:43:21;111.73;;;3.10;;
8938;SDS011;4504;48.810;9.172;2023-07-09T06:45:49;112.20;;;3.50;;
8938;SDS011;4504;48.810;9.172;2023-07-09T06:48:19;109.47;;;3.00;;
8938;SDS011;4504;48.810;9.172;2023-07-09T06:50:46;108.97;;;3.00;;
8938;SDS011;4504;48.810;9.172;2023-07-09T06:53:14;109.10;;;3.57;;
8938;SDS011;4504;48.810;9.172;2023-07-09T06:55:41;109.57;;;3.50;;
8938;SDS011;4504;48.810;9.172;2023-07-09T06:58:08;110.53;;;3.40;;
8938;SDS011;4504;48.810;9.172;2023-07-09T07:00:35;109.47;;;3.50;;
8938;SDS011;4504;48.810;9.172;2023-07-09T07:03:03;108.63;;;3.10;;
8938;SDS011;4504;48.810;9.172;2023-07-09T07:05:32;109.37;;;3.30;;
8938;SDS011;4504;48.810;9.172;2023-07-09T07:07:59;110.80;;;3.30;;
8938;SDS011;4504;48.810;9.172;2023-07-09T07:10:26;108.37;;;3.03;;
8938;SDS011;4504;48.810;9.172;2023-07-09T07:12:53;107.07;;;3.23;;
8938;SDS011;4504;48.810;9.172;2023-07-09T07:15:20;109.27;;;3.17;;
8938;SDS011;4504;48.810;9.172;2023-07-09T07:17:48;107.03;;;3.00;;
8938;SDS011;4504;48.810;9.172;2023-07-09T07:20:15;106.90;;;2.80;;
8938;SDS011;4504;48.810;9.172;2023-07-09T07:22:45;107.80;;;3.23;;
8938;SDS011;4504;48.810;9.172;2023-07-09T07:25:12;108.57;;;3.30;;
8938;SDS011;4504;48.810;9.172;2023-07-09T07:27:40;109.10;;;2.83;;
8938;SDS011;4504;48.810;9.172;2023-07-09T07:30:08;107.97;;;3.50;;
8938;SDS011;4504;48.810;9.172;2023-07-09T07:32:37;107.80;;;3.37;;
8938;SDS011;4504;48.810;9.172;2023-07-09T07:35:05;107.87;;;3.40;;
8938;SDS011;4504;48.810;9.172;2023-07-09T07:37:32;107.10;;;3.10;;
8938;SDS011;4504;48.810;9.172;2023-07-09T07:40:01;107.07;;;2.90;;
8938;SDS011;4504;48.810;9.172;2023-07-09T07:42:30;108.13;;;3.30;;
8938;SDS011;4504;48.810;9.172;2023-07-09T07:44:57;108.00;;;3.53;;
8938;SDS011;4504;48.810;9.172;2023-07-09T07:47:24;107.50;;;2.93;;
8938;SDS011;4504;48.810;9.172;2023-07-09T07:49:52;106.40;;;2.77;;
8938;SDS011;4504;48.810;9.172;2023-07-09T07:52:19;105.23;;;3.20;;
8938;SDS011;4504;48.810;9.172;2023-07-09T07:54:47;106.13;;;3.37;;
8938;SDS011;4504;48.810;9.172;2023-07-09T07:57:15;107.67;;;3.27;;
8938;SDS011;4504;48.810;9.172;2023-07-09T07:59:42;106.23;;;2.93;;
8938;SDS011;4504;48.810;9.172;2023-07-09T08:02:10;106.03;;;2.80;;
8938;SDS011;4504;48.810;9.172;2023-07-09T08:04:39;107.40;;;3.13;;
8938;SDS011;4504;48.810;9.172;2023-07-09T08:07:06;106.67;;;3.07;;
8938;SDS011;4504;48.810;9.172;2023-07-09T08:09:34;106.57;;;3.13;;
8938;SDS011;4504;48.810;9.172;2023-07-09T08:12:01;106.10;;;3.07;;
8938;SDS011;4504;48.810;9.172;2023-07-09T08:14:35;109.27;;;3.20;;
8938;SDS011;4504;48.810;9.172;2023-07-09T08:17:02;104.97;;;2.50;;
8938;SDS011;4504;48.810;9.172;2023-07-09T08:19:30;105.70;;;2.70;;
8938;SDS011;4504;48.810;9.172;2023-07-09T08:21:57;105.20;;;3.00;;
8938;SDS011;4504;48.810;9.172;2023-07-09T08:24:25;105.70;;;2.70;;
8938;SDS011;4504;48.810;9.172;2023-07-09T08:26:51;106.90;;;3.10;;
8938;SDS011;4504;48.810;9.172;2023-07-09T08:29:18;104.40;;;2.63;;
8938;SDS011;4504;48.810;9.172;2023-07-09T08:31:47;105.73;;;2.93;;
8938;SDS011;4504;48.810;9.172;2023-07-09T08:34:14;104.47;;;2.70;;
8938;SDS011;4504;48.810;9.172;2023-07-09T08:36:41;105.63;;;2.80;;
8938;SDS011;4504;48.810;9.172;2023-07-09T08:39:10;106.50;;;3.03;;
8938;SDS011;4504;48.810;9.172;2023-07-09T08:41:39;109.27;;;3.63;;
8938;SDS011;4504;48.810;9.172;2023-07-09T08:44:12;106.33;;;3.10;;
8938;SDS011;4504;48.810;9.172;2023-07-09T08:46:57;105.97;;;3.00;;
8938;SDS011;4504;48.810;9.172;2023-07-09T08:49:31;104.97;;;2.37;;
8938;SDS011;4504;48.810;9.172;2023-07-09T08:52:04;102.93;;;2.57;;
8938;SDS011;4504;48.810;9.172;2023-07-09T08:54:38;108.97;;;3.03;;
8938;SDS011;4504;48.810;9.172;2023-07-09T08:57:09;105.87;;;3.10;;
8938;SDS011;4504;48.810;9.172;2023-07-09T08:59:43;104.63;;;2.80;;
8938;SDS011;4504;48.810;9.172;2023-07-09T09:02:14;106.50;;;2.97;;
8938;SDS011;4504;48.810;9.172;2023-07-09T09:04:48;103.87;;;3.27;;
8938;SDS011;4504;48.810;9.172;2023-07-09T09:07:16;106.60;;;2.50;;
8938;SDS011;4504;48.810;9.172;2023-07-09T09:10:02;106.00;;;3.30;;
8938;SDS011;4504;48.810;9.172;2023-07-09T09:12:31;104.17;;;2.67;;
8938;SDS011;4504;48.810;9.172;2023-07-09T09:15:05;104.60;;;3.00;;
8938;SDS011;4504;48.810;9.172;2023-07-09T09:17:40;110.37;;;2.90;;
8938;SDS011;4504;48.810;9.172;2023-07-09T09:20:08;106.17;;;3.10;;
8938;SDS011;4504;48.810;9.172;2023-07-09T09:22:40;105.90;;;3.37;;
8938;SDS011;4504;48.810;9.172;2023-07-09T09:25:15;104.60;;;2.50;;
8938;SDS011;4504;48.810;9.172;2023-07-09T09:27:47;104.27;;;2.60;;
8938;SDS011;4504;48.810;9.172;2023-07-09T09:30:15;105.27;;;2.40;;
8938;SDS011;4504;48.810;9.172;2023-07-09T09:32:47;103.30;;;2.53;;
8938;SDS011;4504;48.810;9.172;2023-07-09T09:35:18;102.57;;;2.70;;
8938;SDS011;4504;48.810;9.172;2023-07-09T09:37:50;103.47;;;2.77;;
8938;SDS011;4504;48.810;9.172;2023-07-09T09:40:19;105.37;;;2.50;;
8938;SDS011;4504;48.810;9.172;2023-07-09T09:42:47;102.47;;;2.33;;
8938;SDS011;4504;48.810;9.172;2023-07-09T09:45:16;102.50;;;2.70;;
8938;SDS011;4504;48.810;9.172;2023-07-09T09:47:47;102.27;;;2.67;;
8938;SDS011;4504;48.810;9.172;2023-07-09T09:50:15;102.77;;;2.30;;
8938;SDS011;4504;48.810;9.172;2023-07-09T09:52:43;103.30;;;2.50;;
8938;SDS011;4504;48.810;9.172;2023-07-09T09:55:12;104.30;;;3.10;;
8938;SDS011;4504;48.810;9.172;2023-07-09T09:57:47;102.83;;;2.63;;
8938;SDS011;4504;48.810;9.172;2023-07-09T10:00:14;102.67;;;2.70;;
8938;SDS011;4504;48.810;9.172;2023-07-09T10:02:42;101.07;;;2.43;;
8938;SDS011;4504;48.810;9.172;2023-07-09T10:05:12;103.40;;;3.20;;
8938;SDS011;4504;48.810;9.172;2023-07-09T10:07:43;102.17;;;2.50;;
8938;SDS011;4504;48.810;9.172;2023-07-09T10:10:15;103.27;;;2.60;;
8938;SDS011;4504;48.810;9.172;2023-07-09T10:12:47;101.73;;;2.70;;
8938;SDS011;4504;48.810;9.172;2023-07-09T10:15:21;102.97;;;3.00;;
8938;SDS011;4504;48.810;9.172;2023-07-09T10:17:57;105.70;;;2.60;;
8938;SDS011;4504;48.810;9.172;2023-07-09T10:20:32;100.97;;;2.17;;
8938;SDS011;4504;48.810;9.172;2023-07-09T10:23:03;102.00;;;2.63;;
8938;SDS011;4504;48.810;9.172;2023-07-09T10:25:42;98.87;;;2.20;;
8938;SDS011;4504;48.810;9.172;2023-07-09T10:28:21;100.57;;;2.40;;
8938;SDS011;4504;48.810;9.172;2023-07-09T10:31:00;101.20;;;2.17;;
8938;SDS011;4504;48.810;9.172;2023-07-09T10:33:37;99.33;;;2.07;;
8938;SDS011;4504;48.810;9.172;2023-07-09T10:36:19;102.27;;;2.40;;
8938;SDS011;4504;48.810;9.172;2023-07-09T10:38:54;99.50;;;2.40;;
8938;SDS011;4504;48.810;9.172;2023-07-09T10:41:25;101.07;;;2.30;;
8938;SDS011;4504;48.810;9.172;2023-07-09T10:43:54;99.47;;;2.03;;
8938;SDS011;4504;48.810;9.172;2023-07-09T10:46:27;99.30;;;2.17;;
8938;SDS011;4504;48.810;9.172;2023-07-09T10:48:57;100.67;;;2.17;;
8938;SDS011;4504;48.810;9.172;2023-07-09T10:51:36;100.17;;;2.03;;
8938;SDS011;4504;48.810;9.172;2023-07-09T10:54:06;99.90;;;2.00;;
8938;SDS011;4504;48.810;9.172;2023-07-09T10:59:03;98.47;;;1.90;;
8938;SDS011;4504;48.810;9.172;2023-07-09T11:01:39;97.50;;;2.10;;
8938;SDS011;4504;48.810;9.172;2023-07-09T11:04:10;97.40;;;2.30;;
8938;SDS011;4504;48.810;9.172;2023-07-09T11:06:43;96.80;;;2.23;;
8938;SDS011;4504;48.810;9.172;2023-07-09T11:09:14;96.90;;;2.03;;
8938;SDS011;4504;48.810;9.172;2023-07-09T11:11:48;98.47;;;2.10;;
8938;SDS011;4504;48.810;9.172;2023-07-09T11:14:23;94.80;;;1.80;;
8938;SDS011;4504;48.810;9.172;2023-07-09T11:16:56;95.73;;;2.10;;
8938;SDS011;4504;48.810;9.172;2023-07-09T11:19:26;96.37;;;2.20;;
8938;SDS011;4504;48.810;9.172;2023-07-09T11:21:57;93.67;;;2.10;;
8938;SDS011;4504;48.810;9.172;2023-07-09T11:24:36;91.97;;;1.70;;
8938;SDS011;4504;48.810;9.172;2023-07-09T11:27:16;92.90;;;1.77;;
8938;SDS011;4504;48.810;9.172;2023-07-09T11:29:56;92.77;;;1.70;;
8938;SDS011;4504;48.810;9.172;2023-07-09T11:32:24;92.00;;;1.70;;
8938;SDS011;4504;48.810;9.172;2023-07-09T11:34:53;93.10;;;1.60;;
8938;SDS011;4504;48.810;9.172;2023-07-09T11:37:23;104.00;;;2.03;;
8938;SDS011;4504;48.810;9.172;2023-07-09T11:39:52;92.77;;;1.90;;
8938;SDS011;4504;48.810;9.172;2023-07-09T11:42:26;92.63;;;1.87;;
8938;SDS011;4504;48.810;9.172;2023-07-09T11:45:02;93.00;;;1.80;;
8938;SDS011;4504;48.810;9.172;2023-07-09T11:47:34;92.27;;;2.00;;
8938;SDS011;4504;48.810;9.172;2023-07-09T11:50:07;90.70;;;1.73;;
8938;SDS011;4504;48.810;9.172;2023-07-09T11:52:43;92.97;;;1.80;;
8938;SDS011;4504;48.810;9.172;2023-07-09T11:55:19;92.07;;;2.40;;
8938;SDS011;4504;48.810;9.172;2023-07-09T11:57:55;90.87;;;1.70;;
8938;SDS011;4504;48.810;9.172;2023-07-09T12:00:24;104.17;;;2.50;;
8938;SDS011;4504;48.810;9.172;2023-07-09T12:02:55;93.20;;;1.90;;
8938;SDS011;4504;48.810;9.172;2023-07-09T12:05:25;90.27;;;2.10;;
8938;SDS011;4504;48.810;9.172;2023-07-09T12:07:54;89.27;;;1.70;;
8938;SDS011;4504;48.810;9.172;2023-07-09T12:10:23;92.20;;;2.13;;
8938;SDS011;4504;48.810;9.172;2023-07-09T12:12:56;89.67;;;2.57;;
8938;SDS011;4504;48.810;9.172;2023-07-09T12:15:26;89.47;;;1.80;;
8938;SDS011;4504;48.810;9.172;2023-07-09T12:17:55;89.87;;;1.80;;
8938;SDS011;4504;48.810;9.172;2023-07-09T12:20:24;88.97;;;2.20;;
8938;SDS011;4504;48.810;9.172;2023-07-09T12:22:52;88.73;;;2.00;;
8938;SDS011;4504;48.810;9.172;2023-07-09T12:25:22;90.00;;;1.80;;
8938;SDS011;4504;48.810;9.172;2023-07-09T12:27:51;88.10;;;2.13;;
8938;SDS011;4504;48.810;9.172;2023-07-09T12:30:19;86.70;;;1.73;;
8938;SDS011;4504;48.810;9.172;2023-07-09T12:32:49;89.73;;;2.00;;
8938;SDS011;4504;48.810;9.172;2023-07-09T12:35:18;88.50;;;1.57;;
8938;SDS011;4504;48.810;9.172;2023-07-09T12:37:46;88.47;;;1.53;;
8938;SDS011;4504;48.810;9.172;2023-07-09T12:40:20;90.33;;;1.83;;
8938;SDS011;4504;48.810;9.172;2023-07-09T12:42:48;91.97;;;2.23;;
8938;SDS011;4504;48.810;9.172;2023-07-09T12:45:16;87.40;;;1.83;;
8938;SDS011;4504;48.810;9.172;2023-07-09T12:47:45;89.00;;;1.77;;
8938;SDS011;4504;48.810;9.172;2023-07-09T12:53:01;87.60;;;1.50;;
8938;SDS011;4504;48.810;9.172;2023-07-09T12:55:30;85.33;;;1.70;;
8938;SDS011;4504;48.810;9.172;2023-07-09T12:58:07;93.00;;;1.87;;
8938;SDS011;4504;48.810;9.172;2023-07-09T13:00:36;89.50;;;2.20;;
8938;SDS011;4504;48.810;9.172;2023-07-09T13:03:09;91.00;;;1.80;;
8938;SDS011;4504;48.810;9.172;2023-07-09T13:05:39;90.83;;;1.50;;
8938;SDS011;4504;48.810;9.172;2023-07-09T13:08:18;91.47;;;2.37;;
8938;SDS011;4504;48.810;9.172;2023-07-09T13:10:45;91.10;;;1.63;;
8938;SDS011;4504;48.810;9.172;2023-07-09T13:13:16;87.50;;;1.60;;
8938;SDS011;4504;48.810;9.172;2023-07-09T13:15:43;88.13;;;2.40;;
8938;SDS011;4504;48.810;9.172;2023-07-09T13:18:15;88.93;;;1.70;;
8938;SDS011;4504;48.810;9.172;2023-07-09T13:20:42;87.67;;;1.40;;
8938;SDS011;4504;48.810;9.172;2023-07-09T13:23:13;87.27;;;1.80;;
8938;SDS011;4504;48.810;9.172;2023-07-09T13:25:42;87.53;;;1.60;;
8938;SDS011;4504;48.810;9.172;2023-07-09T13:28:13;87.10;;;1.73;;
8938;SDS011;4504;48.810;9.172;2023-07-09T13:30:45;92.20;;;2.10;;
8938;SDS011;4504;48.810;9.172;2023-07-09T13:33:13;90.40;;;1.87;;
8938;SDS011;4504;48.810;9.172;2023-07-09T13:35:43;88.77;;;1.83;;
8938;SDS011;4504;48.810;9.172;2023-07-09T13:38:13;87.47;;;1.60;;
8938;SDS011;4504;48.810;9.172;2023-07-09T13:40:42;91.57;;;2.40;;
8938;SDS011;4504;48.810;9.172;2023-07-09T13:43:13;89.27;;;2.23;;
8938;SDS011;4504;48.810;9.172;2023-07-09T13:45:42;87.27;;;1.77;;
8938;SDS011;4504;48.810;9.172;2023-07-09T13:48:15;87.40;;;1.53;;
8938;SDS011;4504;48.810;9.172;2023-07-09T13:50:43;88.10;;;1.80;;
8938;SDS011;4504;48.810;9.172;2023-07-09T13:53:16;90.17;;;1.87;;
8938;SDS011;4504;48.810;9.172;2023-07-09T13:55:44;89.80;;;1.90;;
8938;SDS011;4504;48.810;9.172;2023-07-09T13:58:12;90.00;;;2.20;;
8938;SDS011;4504;48.810;9.172;2023-07-09T14:00:42;88.70;;;1.80;;
8938;SDS011;4504;48.810;9.172;2023-07-09T14:03:12;89.23;;;1.60;;
8938;SDS011;4504;48.810;9.172;2023-07-09T14:05:45;90.47;;;2.00;;
8938;SDS011;4504;48.810;9.172;2023-07-09T14:08:12;89.50;;;2.40;;
8938;SDS011;4504;48.810;9.172;2023-07-09T14:10:39;88.47;;;1.83;;
8938;SDS011;4504;48.810;9.172;2023-07-09T14:13:08;90.20;;;1.73;;
8938;SDS011;4504;48.810;9.172;2023-07-09T14:15:40;89.03;;;1.67;;
8938;SDS011;4504;48.810;9.172;2023-07-09T14:18:09;89.10;;;1.80;;
8938;SDS011;4504;48.810;9.172;2023-07-09T14:20:39;89.53;;;1.60;;
8938;SDS011;4504;48.810;9.172;2023-07-09T14:23:08;89.47;;;1.80;;
8938;SDS011;4504;48.810;9.172;2023-07-09T14:25:36;89.07;;;1.80;;
8938;SDS011;4504;48.810;9.172;2023-07-09T14:28:04;87.80;;;1.80;;
8938;SDS011;4504;48.810;9.172;2023-07-09T14:30:36;88.50;;;1.60;;
8938;SDS011;4504;48.810;9.172;2023-07-09T14:33:04;89.27;;;1.67;;
8938;SDS011;4504;48.810;9.172;2023-07-09T14:35:35;87.77;;;1.50;;
8938;SDS011;4504;48.810;9.172;2023-07-09T14:38:06;89.47;;;1.93;;
8938;SDS011;4504;48.810;9.172;2023-07-09T14:40:43;87.70;;;1.30;;
8938;SDS011;4504;48.810;9.172;2023-07-09T14:43:10;89.10;;;1.67;;
8938;SDS011;4504;48.810;9.172;2023-07-09T14:45:38;88.23;;;1.53;;
8938;SDS011;4504;48.810;9.172;2023-07-09T14:48:09;104.30;;;2.60;;
8938;SDS011;4504;48.810;9.172;2023-07-09T14:50:36;87.37;;;1.73;;
8938;SDS011;4504;48.810;9.172;2023-07-09T14:53:08;88.53;;;1.57;;
8938;SDS011;4504;48.810;9.172;2023-07-09T14:55:39;88.50;;;1.50;;
8938;SDS011;4504;48.810;9.172;2023-07-09T14:58:09;89.87;;;1.67;;
8938;SDS011;4504;48.810;9.172;2023-07-09T15:00:40;88.73;;;1.50;;
8938;SDS011;4504;48.810;9.172;2023-07-09T15:03:09;90.77;;;1.97;;
8938;SDS011;4504;48.810;9.172;2023-07-09T15:05:37;90.67;;;1.97;;
8938;SDS011;4504;48.810;9.172;2023-07-09T15:08:11;90.63;;;1.57;;